Time;durP1;ratioP1;P1;durP2;ratioP2;P2;SDS_P1;SDS_P2;PMS_P1;PMS_P2;Temp;Humidity;BMP_temperature;BMP_pressure;BME280_temperature;BME280_humidity;BME280_pressure;Samples;Min_cycle;Max_cycle;Signal;HPM_P1;HPM_P2
2023/05/01 00:03:50;;;;;;;1.83;0.90;;;;;;;20.39;46.22;101597.63;19883720;29;20120;-66
2023/05/01 00:13:53;;;;;;;0.80;0.70;;;;;;;20.36;46.26;101597.91;19882021;29;20055;-66
2023/05/01 00:23:55;;;;;;;0.82;0.80;;;;;;;20.33;45.99;101587.34;19881377;29;20062;-65
2023/05/01 00:33:56;;;;;;;0.77;0.65;;;;;;;20.29;45.94;101569.66;19879501;29;20080;-66
2023/05/01 00:43:58;;;;;;;2.22;0.90;;;;;;;20.26;45.89;101559.13;19880043;29;20050;-66
2023/05/01 00:54:00;;;;;;;2.13;1.00;;;;;;;20.25;46.04;101546.59;19871816;29;20050;-66
2023/05/01 01:04:02;;;;;;;1.20;1.10;;;;;;;20.22;45.86;101536.06;19877919;29;20146;-66
2023/05/01 01:14:07;;;;;;;1.52;1.00;;;;;;;20.20;45.64;101520.00;19880372;29;20501;-66
2023/05/01 01:24:38;;;;;;;1.00;0.90;;;;;;;20.17;45.88;101509.44;19860576;29;20062;-66
2023/05/01 01:34:47;;;;;;;1.23;1.10;;;;;;;20.14;45.55;101499.75;19851606;29;20086;-66
2023/05/01 01:44:55;;;;;;;1.08;1.00;;;;;;;20.11;45.40;101489.22;19879517;29;20649;-66
2023/05/01 01:55:06;;;;;;;0.98;0.90;;;;;;;20.10;45.57;101482.09;19876490;29;20107;-66
2023/05/01 02:05:09;;;;;;;3.50;1.42;;;;;;;20.07;45.42;101476.97;19874807;29;20059;-66
2023/05/01 02:15:11;;;;;;;1.52;1.20;;;;;;;20.07;45.34;101455.34;19873355;29;20425;-66
2023/05/01 02:25:15;;;;;;;1.20;1.10;;;;;;;20.11;45.33;101431.63;19892499;29;20051;-66
2023/05/01 02:35:17;;;;;;;1.05;0.90;;;;;;;20.09;45.15;101407.41;19901798;29;20145;-66
2023/05/01 02:45:20;;;;;;;1.20;1.10;;;;;;;20.12;45.08;101401.72;19889281;29;20089;-66
2023/05/01 02:55:22;;;;;;;1.08;0.98;;;;;;;20.12;44.88;101385.50;19872994;29;20134;-66
2023/05/01 03:05:24;;;;;;;1.33;1.23;;;;;;;20.11;44.92;101364.88;19871477;29;20090;-66
2023/05/01 03:15:25;;;;;;;1.40;1.10;;;;;;;20.09;45.31;101350.66;19861850;29;20123;-65
2023/05/01 03:25:27;;;;;;;2.13;1.33;;;;;;;20.07;45.24;101325.63;19862338;29;20409;-66
2023/05/01 03:35:29;;;;;;;2.25;1.40;;;;;;;20.07;45.41;101322.03;19866546;29;20104;-66
2023/05/01 03:45:31;;;;;;;1.33;1.13;;;;;;;20.02;45.56;101314.38;19871649;29;20081;-66
2023/05/01 03:55:33;;;;;;;1.33;1.23;;;;;;;19.96;45.63;101317.63;19882590;29;20059;-66
2023/05/01 04:05:36;;;;;;;1.90;1.33;;;;;;;19.90;45.78;101312.75;19881799;29;20057;-66
2023/05/01 04:15:38;;;;;;;1.65;1.20;;;;;;;19.85;45.67;101307.78;19887193;29;20062;-66
2023/05/01 04:25:40;;;;;;;1.42;1.10;;;;;;;19.80;45.86;101305.47;19882652;29;20058;-66
2023/05/01 04:35:46;;;;;;;1.77;1.20;;;;;;;19.77;45.73;101292.25;19883675;29;20097;-66
2023/05/01 04:45:47;;;;;;;1.38;1.02;;;;;;;19.74;45.67;101289.81;19885707;29;20081;-66
2023/05/01 04:55:49;;;;;;;2.40;1.48;;;;;;;19.73;46.02;101282.72;19884171;29;20453;-66
2023/05/01 05:05:52;;;;;;;1.35;1.00;;;;;;;19.70;45.93;101281.16;19881307;29;20090;-66
2023/05/01 05:15:54;;;;;;;1.60;1.50;;;;;;;19.69;45.81;101270.47;19882188;29;20050;-67
2023/05/01 05:26:00;;;;;;;1.85;1.27;;;;;;;19.68;46.03;101274.19;19880290;29;20063;-66
2023/05/01 05:36:02;;;;;;;1.37;1.20;;;;;;;19.70;46.31;101255.97;19860378;29;20089;-69
2023/05/01 05:46:09;;;;;;;2.22;1.23;;;;;;;19.73;46.45;101260.28;19887225;29;20102;-67
2023/05/01 05:56:12;;;;;;;1.75;1.45;;;;;;;19.76;46.81;101260.81;19871487;29;20091;-69
2023/05/01 06:06:14;;;;;;;1.63;1.50;;;;;;;19.81;46.98;101246.91;19879148;29;20050;-67
2023/05/01 06:16:16;;;;;;;1.10;1.00;;;;;;;19.86;47.03;101242.78;19859702;29;20099;-67
2023/05/01 06:26:17;;;;;;;1.80;1.20;;;;;;;19.91;47.32;101239.69;19868047;29;20051;-67
2023/05/01 06:36:19;;;;;;;2.72;1.90;;;;;;;19.98;48.01;101238.13;19884893;29;20086;-67
2023/05/01 06:46:21;;;;;;;2.17;1.55;;;;;;;20.06;47.73;101234.72;19884162;29;20125;-67
2023/05/01 06:56:23;;;;;;;1.67;1.30;;;;;;;20.08;47.23;101212.94;19888372;29;20085;-67
2023/05/01 07:06:26;;;;;;;2.55;1.40;;;;;;;20.22;46.89;101231.44;19876715;29;20055;-67
2023/05/01 07:16:28;;;;;;;1.88;1.20;;;;;;;20.38;46.34;101228.16;19887250;29;20058;-67
2023/05/01 07:26:30;;;;;;;2.30;1.58;;;;;;;20.49;46.07;101223.56;19881569;29;20062;-67
2023/05/01 07:36:32;;;;;;;2.47;1.50;;;;;;;20.58;45.62;101214.56;19884165;29;20581;-67
2023/05/01 07:46:35;;;;;;;2.78;1.45;;;;;;;20.61;45.38;101206.16;19878986;29;20470;-67
2023/05/01 07:56:38;;;;;;;2.35;1.30;;;;;;;20.65;45.32;101206.72;19874159;29;20054;-68
2023/05/01 08:06:40;;;;;;;1.92;1.35;;;;;;;20.69;45.38;101208.97;19862518;29;20063;-67
2023/05/01 08:16:42;;;;;;;3.00;1.50;;;;;;;20.83;45.22;101187.91;19854083;29;20062;-67
2023/05/01 08:26:44;;;;;;;3.33;1.60;;;;;;;20.92;45.09;101187.00;19858853;29;20078;-67
2023/05/01 08:36:46;;;;;;;2.72;1.42;;;;;;;21.49;44.86;101198.66;19855564;29;20148;-68
2023/05/01 08:46:56;;;;;;;2.03;1.25;;;;;;;22.17;43.42;101194.56;19854790;29;20581;-68
2023/05/01 08:57:02;;;;;;;3.35;1.52;;;;;;;22.22;43.26;101196.81;19842915;29;20567;-67
2023/05/01 09:07:04;;;;;;;1.90;1.30;;;;;;;21.99;43.38;101183.72;19846436;29;20146;-68
2023/05/01 09:17:06;;;;;;;2.95;1.30;;;;;;;21.84;43.72;101192.44;19858736;29;20057;-71
2023/05/01 09:27:08;;;;;;;2.22;1.33;;;;;;;21.76;43.90;101195.06;19858606;29;20059;-70
2023/05/01 09:37:28;;;;;;;4.80;1.40;;;;;;;21.66;44.25;101178.88;19877147;29;20089;-69
2023/05/01 09:47:30;;;;;;;1.92;1.20;;;;;;;21.69;44.46;101180.44;19885943;29;20059;-69
2023/05/01 09:57:37;;;;;;;1.73;0.98;;;;;;;21.73;44.60;101176.41;19871201;29;20138;-71
2023/05/01 10:07:58;;;;;;;2.78;1.77;;;;;;;21.71;45.02;101159.47;19865263;29;20051;-72
2023/05/01 10:18:00;;;;;;;2.08;1.08;;;;;;;21.73;45.24;101152.03;19848030;29;20523;-72
2023/05/01 10:28:04;;;;;;;1.67;0.98;;;;;;;21.76;45.45;101146.28;19860972;29;21976;-71
2023/05/01 10:38:09;;;;;;;2.20;1.30;;;;;;;21.77;45.36;101145.28;19866560;29;20062;-71
2023/05/01 10:48:12;;;;;;;3.15;1.35;;;;;;;21.79;45.81;101145.09;19883782;29;20465;-71
2023/05/01 10:58:37;;;;;;;1.52;1.10;;;;;;;21.82;45.97;101139.38;19884302;29;20062;-70
2023/05/01 11:08:39;;;;;;;2.40;1.17;;;;;;;21.83;46.15;101138.38;19852572;29;20428;-70
2023/05/01 11:18:44;;;;;;;1.42;1.15;;;;;;;21.85;45.92;101126.38;19843814;29;20051;-71
2023/05/01 11:28:46;;;;;;;1.77;1.15;;;;;;;21.88;46.23;101133.34;19869139;29;20469;-72
2023/05/01 11:38:52;;;;;;;2.30;1.00;;;;;;;21.86;46.23;101124.50;19857926;29;20160;-72
2023/05/01 11:48:57;;;;;;;2.45;1.20;;;;;;;21.90;46.07;101127.75;19858847;29;20055;-70
2023/05/01 11:59:15;;;;;;;2.03;0.90;;;;;;;21.93;46.24;101124.72;19858242;29;20442;-71
2023/05/01 12:09:21;;;;;;;2.17;1.10;;;;;;;21.99;46.36;101124.09;19850113;29;20046;-71
2023/05/01 12:19:23;;;;;;;1.20;1.05;;;;;;;22.02;46.17;101130.06;19870359;29;20063;-70
2023/05/01 12:29:25;;;;;;;1.60;0.68;;;;;;;22.05;46.24;101123.47;19868479;29;20100;-70
2023/05/01 12:39:41;;;;;;;1.52;0.88;;;;;;;21.96;45.99;101109.00;19872037;29;20522;-70
2023/05/01 12:49:43;;;;;;;1.23;0.80;;;;;;;22.01;45.80;101108.53;19861451;29;20127;-70
2023/05/01 12:59:45;;;;;;;1.17;0.70;;;;;;;22.04;45.84;101112.78;19856784;29;20094;-70
2023/05/01 13:09:52;;;;;;;0.77;0.55;;;;;;;21.94;45.78;101093.91;19863442;29;20082;-71
2023/05/01 13:20:04;;;;;;;0.70;0.50;;;;;;;22.00;45.62;101109.53;19844476;29;20063;-70
2023/05/01 13:30:06;;;;;;;1.67;1.35;;;;;;;22.00;45.59;101109.53;19872653;29;20051;-70
2023/05/01 13:40:08;;;;;;;1.35;0.70;;;;;;;22.00;45.37;101110.41;19879631;29;20050;-70
2023/05/01 13:50:14;;;;;;;0.50;0.47;;;;;;;21.99;45.61;101113.25;19861906;29;20113;-69
2023/05/01 14:00:17;;;;;;;0.98;0.50;;;;;;;21.94;45.40;101121.00;19858423;29;20054;-69
2023/05/01 14:10:20;;;;;;;0.50;0.50;;;;;;;21.85;45.37;101107.41;19867126;29;20050;-70
2023/05/01 14:20:25;;;;;;;1.25;0.57;;;;;;;21.85;45.63;101110.13;19873126;29;20071;-70
2023/05/01 14:30:37;;;;;;;0.95;0.60;;;;;;;21.87;45.56;101124.34;19875802;29;20065;-70
2023/05/01 14:40:40;;;;;;;0.85;0.70;;;;;;;21.85;45.60;101122.78;19866903;29;20061;-67
2023/05/01 14:50:42;;;;;;;0.97;0.60;;;;;;;21.85;45.95;101123.66;19856467;29;20104;-69
2023/05/01 15:00:44;;;;;;;0.68;0.68;;;;;;;21.83;45.97;101122.97;19870501;29;20424;-68
2023/05/01 15:10:46;;;;;;;1.23;0.60;;;;;;;21.83;46.33;101131.09;19868898;29;20557;-68
2023/05/01 15:20:48;;;;;;;0.90;0.70;;;;;;;21.82;46.50;101131.25;19877732;29;20059;-72
2023/05/01 15:30:52;;;;;;;1.83;0.70;;;;;;;21.79;46.66;101140.56;19877083;29;20058;-74
2023/05/01 15:40:55;;;;;;;1.20;1.10;;;;;;;21.76;46.80;101140.88;19868860;29;20159;-71
2023/05/01 15:50:57;;;;;;;1.00;0.75;;;;;;;21.73;46.85;101158.28;19873848;29;20051;-68
2023/05/01 16:00:58;;;;;;;1.60;0.80;;;;;;;21.70;47.25;101141.50;19860525;29;20058;-69
2023/05/01 16:11:02;;;;;;;1.95;0.80;;;;;;;21.69;48.47;101166.91;19872002;29;20059;-65
2023/05/01 16:21:03;;;;;;;1.25;0.70;;;;;;;21.71;49.37;101171.13;19864220;29;20137;-67
2023/05/01 16:31:07;;;;;;;15.57;11.50;;;;;;;21.66;49.93;101172.63;19859092;29;20062;-67
2023/05/01 16:41:27;;;;;;;10.27;7.95;;;;;;;21.68;50.25;101170.63;19865724;29;20062;-70
2023/05/01 16:51:28;;;;;;;7.35;6.15;;;;;;;21.77;51.08;101185.06;19856102;29;21382;-66
2023/05/01 17:01:30;;;;;;;5.28;4.28;;;;;;;21.77;53.23;101185.06;19850614;29;20086;-66
2023/05/01 17:11:32;;;;;;;4.50;3.40;;;;;;;21.81;53.17;101192.75;19841453;29;20130;-65
2023/05/01 17:21:34;;;;;;;3.65;2.88;;;;;;;21.80;52.67;101201.88;19830313;29;20136;-64
2023/05/01 17:31:36;;;;;;;3.88;2.90;;;;;;;21.75;52.87;101201.50;19829557;29;20058;-65
2023/05/01 17:41:37;;;;;;;2.78;2.13;;;;;;;21.69;52.53;101205.66;19840290;29;20063;-65
2023/05/01 17:51:39;;;;;;;3.25;2.03;;;;;;;21.69;52.33;101215.66;19864043;29;20584;-66
2023/05/01 18:01:41;;;;;;;2.90;1.90;;;;;;;21.65;52.87;101238.63;19864930;29;20071;-67
2023/05/01 18:11:43;;;;;;;3.08;1.95;;;;;;;21.59;52.49;101238.19;19886918;29;20039;-66
2023/05/01 18:21:45;;;;;;;2.70;1.80;;;;;;;21.54;52.02;101245.94;19865782;29;20055;-66
2023/05/01 18:31:46;;;;;;;3.17;1.77;;;;;;;21.51;51.89;101248.97;19860462;29;20415;-66
2023/05/01 18:41:49;;;;;;;2.40;1.92;;;;;;;21.47;51.84;101266.53;19862474;29;20050;-66
2023/05/01 18:51:50;;;;;;;2.95;2.53;;;;;;;21.43;51.52;101273.25;19848324;29;20055;-65
2023/05/01 19:01:52;;;;;;;3.13;1.90;;;;;;;21.37;51.66;101287.41;19841891;29;20059;-66
2023/05/01 19:11:54;;;;;;;2.95;2.60;;;;;;;21.33;51.64;101294.13;19848798;29;20622;-65
2023/05/01 19:21:56;;;;;;;3.03;2.53;;;;;;;21.28;51.48;101314.38;19856525;29;20090;-65
2023/05/01 19:32:01;;;;;;;3.53;2.60;;;;;;;21.21;51.49;101328.66;19870732;29;20492;-65
2023/05/01 19:42:02;;;;;;;3.92;3.45;;;;;;;21.19;51.50;101347.72;19847780;29;20142;-65
2023/05/01 19:52:05;;;;;;;3.03;2.72;;;;;;;21.14;51.54;101347.31;19854960;29;20124;-66
2023/05/01 20:02:07;;;;;;;3.85;3.15;;;;;;;21.12;51.58;101349.31;19867437;29;20416;-65
2023/05/01 20:12:08;;;;;;;3.80;2.70;;;;;;;21.01;51.58;101342.25;19868092;29;20093;-65
2023/05/01 20:22:10;;;;;;;4.13;2.83;;;;;;;21.03;51.66;101370.03;19862254;29;20558;-65
2023/05/01 20:32:12;;;;;;;3.28;2.75;;;;;;;21.00;51.56;101379.28;19882427;29;20100;-66
2023/05/01 20:42:14;;;;;;;3.10;2.80;;;;;;;20.95;51.65;101389.69;19884428;29;20124;-66
2023/05/01 20:52:16;;;;;;;2.92;2.63;;;;;;;20.94;51.70;101404.22;19884918;29;20059;-66
2023/05/01 21:02:17;;;;;;;2.60;2.25;;;;;;;20.93;51.75;101409.75;19886445;29;20572;-66
2023/05/01 21:12:19;;;;;;;3.47;2.85;;;;;;;20.88;51.61;101396.69;19881588;29;20320;-66
2023/05/01 21:22:22;;;;;;;2.83;2.53;;;;;;;20.89;51.67;101397.53;19895701;29;20428;-66
2023/05/01 21:32:31;;;;;;;3.17;2.88;;;;;;;20.92;51.60;101408.94;19897090;29;20066;-65
2023/05/01 21:42:38;;;;;;;3.38;2.88;;;;;;;20.89;51.66;101397.53;19896283;29;20058;-66
2023/05/01 21:52:42;;;;;;;3.38;3.08;;;;;;;20.86;51.67;101407.63;19895514;29;20574;-66
2023/05/01 22:02:45;;;;;;;4.15;3.58;;;;;;;20.85;51.76;101402.38;19894709;29;20061;-66
2023/05/01 22:12:50;;;;;;;3.60;3.13;;;;;;;20.78;51.76;101404.78;19901682;29;20067;-65
2023/05/01 22:22:52;;;;;;;3.40;3.10;;;;;;;20.80;51.94;101412.78;19884010;29;20509;-66
2023/05/01 22:32:54;;;;;;;4.32;3.50;;;;;;;20.78;52.13;101434.53;19894193;29;20082;-66
2023/05/01 22:42:56;;;;;;;4.00;3.60;;;;;;;20.76;52.15;101430.25;19889036;29;20054;-66
2023/05/01 22:52:58;;;;;;;3.55;3.25;;;;;;;20.71;52.22;101455.88;19892774;29;20051;-65
2023/05/01 23:02:59;;;;;;;4.80;3.70;;;;;;;20.67;52.30;101467.97;19891403;29;20123;-66
2023/05/01 23:13:01;;;;;;;3.70;3.30;;;;;;;20.63;52.45;101474.69;19891518;29;20129;-66
2023/05/01 23:23:04;;;;;;;4.10;3.50;;;;;;;20.60;52.49;101480.38;19887767;29;20133;-66
2023/05/01 23:33:09;;;;;;;3.38;2.92;;;;;;;20.52;52.77;101478.34;19888393;29;20053;-66
2023/05/01 23:43:11;;;;;;;3.45;2.70;;;;;;;20.50;52.63;101490.31;19885610;29;20166;-66
2023/05/01 23:53:14;;;;;;;4.00;3.30;;;;;;;20.53;52.77;101498.16;19886726;29;20063;-65
